sensor_id;sensor_type;location;lat;lon;timestamp;P1;durP1;ratioP1;P2;durP2;ratioP2
45909;SDS011;31622;55.416;37.840;2024-02-14T00:02:11;3.70;;;2.40;;
45909;SDS011;31622;55.416;37.840;2024-02-14T00:04:37;3.35;;;2.40;;
45909;SDS011;31622;55.416;37.840;2024-02-14T00:07:04;3.40;;;2.40;;
45909;SDS011;31622;55.416;37.840;2024-02-14T00:09:30;3.53;;;2.60;;
45909;SDS011;31622;55.416;37.840;2024-02-14T00:11:56;4.75;;;2.50;;
45909;SDS011;31622;55.416;37.840;2024-02-14T00:14:21;4.57;;;2.40;;
45909;SDS011;31622;55.416;37.840;2024-02-14T00:16:47;4.45;;;2.30;;
45909;SDS011;31622;55.416;37.840;2024-02-14T00:19:13;3.42;;;2.13;;
45909;SDS011;31622;55.416;37.840;2024-02-14T00:21:39;3.40;;;2.63;;
45909;SDS011;31622;55.416;37.840;2024-02-14T00:24:05;4.90;;;2.45;;
45909;SDS011;31622;55.416;37.840;2024-02-14T00:26:31;3.72;;;2.17;;
45909;SDS011;31622;55.416;37.840;2024-02-14T00:28:57;3.35;;;2.53;;
45909;SDS011;31622;55.416;37.840;2024-02-14T00:31:22;3.70;;;2.58;;
45909;SDS011;31622;55.416;37.840;2024-02-14T00:33:48;3.50;;;2.40;;
45909;SDS011;31622;55.416;37.840;2024-02-14T00:36:14;3.47;;;2.50;;
45909;SDS011;31622;55.416;37.840;2024-02-14T00:38:40;3.92;;;2.67;;
45909;SDS011;31622;55.416;37.840;2024-02-14T00:41:05;3.00;;;2.10;;
45909;SDS011;31622;55.416;37.840;2024-02-14T00:43:31;3.00;;;2.20;;
45909;SDS011;31622;55.416;37.840;2024-02-14T00:45:57;3.60;;;2.47;;
45909;SDS011;31622;55.416;37.840;2024-02-14T00:48:22;3.53;;;2.70;;
45909;SDS011;31622;55.416;37.840;2024-02-14T00:50:48;3.20;;;2.15;;
45909;SDS011;31622;55.416;37.840;2024-02-14T00:53:14;2.58;;;1.92;;
45909;SDS011;31622;55.416;37.840;2024-02-14T00:55:40;2.65;;;1.92;;
45909;SDS011;31622;55.416;37.840;2024-02-14T00:58:06;3.05;;;1.85;;
45909;SDS011;31622;55.416;37.840;2024-02-14T01:00:31;3.42;;;2.20;;
45909;SDS011;31622;55.416;37.840;2024-02-14T01:02:57;3.22;;;2.22;;
45909;SDS011;31622;55.416;37.840;2024-02-14T01:05:23;3.40;;;2.25;;
45909;SDS011;31622;55.416;37.840;2024-02-14T01:07:49;2.67;;;1.95;;
45909;SDS011;31622;55.416;37.840;2024-02-14T01:10:15;3.42;;;2.45;;
45909;SDS011;31622;55.416;37.840;2024-02-14T01:12:41;2.72;;;2.00;;
45909;SDS011;31622;55.416;37.840;2024-02-14T01:15:07;3.53;;;2.50;;
45909;SDS011;31622;55.416;37.840;2024-02-14T01:17:33;3.88;;;2.10;;
45909;SDS011;31622;55.416;37.840;2024-02-14T01:20:01;2.53;;;2.00;;
45909;SDS011;31622;55.416;37.840;2024-02-14T01:22:28;2.85;;;2.03;;
45909;SDS011;31622;55.416;37.840;2024-02-14T01:24:54;3.10;;;2.00;;
45909;SDS011;31622;55.416;37.840;2024-02-14T01:27:20;2.83;;;2.10;;
45909;SDS011;31622;55.416;37.840;2024-02-14T01:29:48;3.42;;;2.15;;
45909;SDS011;31622;55.416;37.840;2024-02-14T01:32:14;2.90;;;2.10;;
45909;SDS011;31622;55.416;37.840;2024-02-14T01:34:39;3.35;;;2.40;;
45909;SDS011;31622;55.416;37.840;2024-02-14T01:37:07;3.10;;;2.17;;
45909;SDS011;31622;55.416;37.840;2024-02-14T01:39:35;3.28;;;2.13;;
45909;SDS011;31622;55.416;37.840;2024-02-14T01:42:01;2.67;;;1.90;;
45909;SDS011;31622;55.416;37.840;2024-02-14T01:44:32;3.38;;;2.10;;
45909;SDS011;31622;55.416;37.840;2024-02-14T01:46:58;3.42;;;2.13;;
45909;SDS011;31622;55.416;37.840;2024-02-14T01:49:23;3.10;;;2.15;;
45909;SDS011;31622;55.416;37.840;2024-02-14T01:51:53;3.05;;;2.15;;
45909;SDS011;31622;55.416;37.840;2024-02-14T01:54:20;2.60;;;1.88;;
45909;SDS011;31622;55.416;37.840;2024-02-14T01:56:46;2.70;;;1.80;;
45909;SDS011;31622;55.416;37.840;2024-02-14T01:59:13;3.85;;;2.10;;
45909;SDS011;31622;55.416;37.840;2024-02-14T02:01:39;3.53;;;2.40;;
45909;SDS011;31622;55.416;37.840;2024-02-14T02:04:05;3.42;;;2.03;;
45909;SDS011;31622;55.416;37.840;2024-02-14T02:06:31;2.50;;;1.88;;
45909;SDS011;31622;55.416;37.840;2024-02-14T02:08:57;3.13;;;2.17;;
45909;SDS011;31622;55.416;37.840;2024-02-14T02:11:24;2.67;;;1.88;;
45909;SDS011;31622;55.416;37.840;2024-02-14T02:13:50;2.70;;;2.00;;
45909;SDS011;31622;55.416;37.840;2024-02-14T02:16:16;2.55;;;1.92;;
45909;SDS011;31622;55.416;37.840;2024-02-14T02:18:44;2.65;;;1.88;;
45909;SDS011;31622;55.416;37.840;2024-02-14T02:21:10;3.00;;;2.10;;
45909;SDS011;31622;55.416;37.840;2024-02-14T02:23:38;3.13;;;1.98;;
45909;SDS011;31622;55.416;37.840;2024-02-14T02:26:06;2.95;;;2.17;;
45909;SDS011;31622;55.416;37.840;2024-02-14T02:28:33;4.30;;;2.63;;
45909;SDS011;31622;55.416;37.840;2024-02-14T02:30:58;2.67;;;2.20;;
45909;SDS011;31622;55.416;37.840;2024-02-14T02:33:24;2.88;;;2.33;;
45909;SDS011;31622;55.416;37.840;2024-02-14T02:35:51;3.20;;;2.30;;
45909;SDS011;31622;55.416;37.840;2024-02-14T02:38:17;3.00;;;2.22;;
45909;SDS011;31622;55.416;37.840;2024-02-14T02:40:43;3.97;;;2.28;;
45909;SDS011;31622;55.416;37.840;2024-02-14T02:43:09;3.47;;;2.40;;
45909;SDS011;31622;55.416;37.840;2024-02-14T02:45:35;2.47;;;1.80;;
45909;SDS011;31622;55.416;37.840;2024-02-14T02:48:01;3.20;;;2.05;;
45909;SDS011;31622;55.416;37.840;2024-02-14T02:50:27;3.60;;;2.30;;
45909;SDS011;31622;55.416;37.840;2024-02-14T02:52:54;6.55;;;2.55;;
45909;SDS011;31622;55.416;37.840;2024-02-14T02:55:20;6.28;;;2.20;;
45909;SDS011;31622;55.416;37.840;2024-02-14T02:57:45;2.72;;;1.83;;
45909;SDS011;31622;55.416;37.840;2024-02-14T03:00:11;2.58;;;1.80;;
45909;SDS011;31622;55.416;37.840;2024-02-14T03:02:38;4.03;;;2.08;;
45909;SDS011;31622;55.416;37.840;2024-02-14T03:05:07;2.67;;;1.85;;
45909;SDS011;31622;55.416;37.840;2024-02-14T03:07:33;3.00;;;2.10;;
45909;SDS011;31622;55.416;37.840;2024-02-14T03:09:59;2.65;;;1.90;;
45909;SDS011;31622;55.416;37.840;2024-02-14T03:12:25;3.78;;;1.98;;
45909;SDS011;31622;55.416;37.840;2024-02-14T03:14:54;2.63;;;1.95;;
45909;SDS011;31622;55.416;37.840;2024-02-14T03:17:19;3.25;;;1.92;;
45909;SDS011;31622;55.416;37.840;2024-02-14T03:19:45;3.65;;;2.40;;
45909;SDS011;31622;55.416;37.840;2024-02-14T03:22:11;2.55;;;1.95;;
45909;SDS011;31622;55.416;37.840;2024-02-14T03:24:36;2.83;;;2.15;;
45909;SDS011;31622;55.416;37.840;2024-02-14T03:27:03;3.00;;;2.13;;
45909;SDS011;31622;55.416;37.840;2024-02-14T03:29:32;2.88;;;2.08;;
45909;SDS011;31622;55.416;37.840;2024-02-14T03:31:58;4.38;;;2.20;;
45909;SDS011;31622;55.416;37.840;2024-02-14T03:34:29;3.20;;;2.10;;
45909;SDS011;31622;55.416;37.840;2024-02-14T03:36:55;2.90;;;2.10;;
45909;SDS011;31622;55.416;37.840;2024-02-14T03:39:21;3.70;;;2.30;;
45909;SDS011;31622;55.416;37.840;2024-02-14T03:41:47;2.58;;;1.77;;
45909;SDS011;31622;55.416;37.840;2024-02-14T03:44:13;4.05;;;2.10;;
45909;SDS011;31622;55.416;37.840;2024-02-14T03:46:39;2.72;;;1.98;;
45909;SDS011;31622;55.416;37.840;2024-02-14T03:49:04;3.53;;;2.38;;
45909;SDS011;31622;55.416;37.840;2024-02-14T03:51:30;3.10;;;2.00;;
45909;SDS011;31622;55.416;37.840;2024-02-14T03:53:56;3.78;;;2.22;;
45909;SDS011;31622;55.416;37.840;2024-02-14T03:56:21;2.60;;;2.00;;
45909;SDS011;31622;55.416;37.840;2024-02-14T03:58:47;3.28;;;2.20;;
45909;SDS011;31622;55.416;37.840;2024-02-14T04:01:13;2.40;;;1.70;;
45909;SDS011;31622;55.416;37.840;2024-02-14T04:03:40;3.22;;;2.30;;
45909;SDS011;31622;55.416;37.840;2024-02-14T04:06:05;2.95;;;2.10;;
45909;SDS011;31622;55.416;37.840;2024-02-14T04:08:32;3.25;;;2.25;;
45909;SDS011;31622;55.416;37.840;2024-02-14T04:10:58;3.00;;;2.10;;
45909;SDS011;31622;55.416;37.840;2024-02-14T04:13:24;3.03;;;2.28;;
45909;SDS011;31622;55.416;37.840;2024-02-14T04:15:50;3.25;;;2.05;;
45909;SDS011;31622;55.416;37.840;2024-02-14T04:18:15;2.78;;;2.08;;
45909;SDS011;31622;55.416;37.840;2024-02-14T04:20:43;3.00;;;2.17;;
45909;SDS011;31622;55.416;37.840;2024-02-14T04:23:09;3.85;;;2.20;;
45909;SDS011;31622;55.416;37.840;2024-02-14T04:25:35;3.33;;;2.40;;
45909;SDS011;31622;55.416;37.840;2024-02-14T04:28:04;10.50;;;2.42;;
45909;SDS011;31622;55.416;37.840;2024-02-14T04:30:31;4.88;;;2.08;;
45909;SDS011;31622;55.416;37.840;2024-02-14T04:32:56;2.65;;;1.90;;
45909;SDS011;31622;55.416;37.840;2024-02-14T04:35:22;5.95;;;2.22;;
45909;SDS011;31622;55.416;37.840;2024-02-14T04:37:48;3.05;;;2.05;;
45909;SDS011;31622;55.416;37.840;2024-02-14T04:40:14;4.90;;;2.20;;
45909;SDS011;31622;55.416;37.840;2024-02-14T04:42:41;3.58;;;2.00;;
45909;SDS011;31622;55.416;37.840;2024-02-14T04:45:07;4.53;;;2.47;;
45909;SDS011;31622;55.416;37.840;2024-02-14T04:47:33;2.92;;;1.88;;
45909;SDS011;31622;55.416;37.840;2024-02-14T04:49:59;3.70;;;2.47;;
45909;SDS011;31622;55.416;37.840;2024-02-14T04:52:26;3.40;;;2.25;;
45909;SDS011;31622;55.416;37.840;2024-02-14T04:54:52;3.50;;;2.00;;
45909;SDS011;31622;55.416;37.840;2024-02-14T04:57:18;2.80;;;2.00;;
45909;SDS011;31622;55.416;37.840;2024-02-14T04:59:46;3.10;;;2.10;;
45909;SDS011;31622;55.416;37.840;2024-02-14T05:02:12;8.13;;;3.17;;
45909;SDS011;31622;55.416;37.840;2024-02-14T05:04:37;5.45;;;2.15;;
45909;SDS011;31622;55.416;37.840;2024-02-14T05:07:04;5.63;;;2.55;;
45909;SDS011;31622;55.416;37.840;2024-02-14T05:09:30;4.88;;;2.85;;
45909;SDS011;31622;55.416;37.840;2024-02-14T05:11:56;8.70;;;3.22;;
45909;SDS011;31622;55.416;37.840;2024-02-14T05:14:21;7.70;;;3.22;;
45909;SDS011;31622;55.416;37.840;2024-02-14T05:16:48;7.95;;;3.25;;
45909;SDS011;31622;55.416;37.840;2024-02-14T05:19:14;6.10;;;2.90;;
45909;SDS011;31622;55.416;37.840;2024-02-14T05:21:40;6.70;;;3.35;;
45909;SDS011;31622;55.416;37.840;2024-02-14T05:24:05;6.30;;;3.10;;
45909;SDS011;31622;55.416;37.840;2024-02-14T05:26:32;5.50;;;3.55;;
45909;SDS011;31622;55.416;37.840;2024-02-14T05:28:58;5.07;;;3.30;;
45909;SDS011;31622;55.416;37.840;2024-02-14T05:31:24;5.40;;;3.17;;
45909;SDS011;31622;55.416;37.840;2024-02-14T05:33:50;7.43;;;3.47;;
45909;SDS011;31622;55.416;37.840;2024-02-14T05:36:16;5.40;;;3.38;;
45909;SDS011;31622;55.416;37.840;2024-02-14T05:38:42;4.93;;;3.70;;
45909;SDS011;31622;55.416;37.840;2024-02-14T05:41:08;5.70;;;3.58;;
45909;SDS011;31622;55.416;37.840;2024-02-14T05:43:34;5.22;;;3.20;;
45909;SDS011;31622;55.416;37.840;2024-02-14T05:46:00;11.65;;;4.05;;
45909;SDS011;31622;55.416;37.840;2024-02-14T05:48:25;8.38;;;3.58;;
45909;SDS011;31622;55.416;37.840;2024-02-14T05:50:51;7.68;;;3.65;;
45909;SDS011;31622;55.416;37.840;2024-02-14T05:53:17;8.52;;;3.85;;
45909;SDS011;31622;55.416;37.840;2024-02-14T05:55:43;9.73;;;4.15;;
45909;SDS011;31622;55.416;37.840;2024-02-14T05:58:09;8.90;;;4.03;;
45909;SDS011;31622;55.416;37.840;2024-02-14T06:00:35;7.05;;;4.15;;
45909;SDS011;31622;55.416;37.840;2024-02-14T06:03:00;7.72;;;4.22;;
45909;SDS011;31622;55.416;37.840;2024-02-14T06:05:27;6.80;;;4.07;;
45909;SDS011;31622;55.416;37.840;2024-02-14T06:07:52;6.78;;;4.20;;
45909;SDS011;31622;55.416;37.840;2024-02-14T06:10:18;5.93;;;4.00;;
45909;SDS011;31622;55.416;37.840;2024-02-14T06:12:44;6.80;;;4.40;;
45909;SDS011;31622;55.416;37.840;2024-02-14T06:15:13;7.45;;;4.72;;
45909;SDS011;31622;55.416;37.840;2024-02-14T06:17:38;6.43;;;4.57;;
45909;SDS011;31622;55.416;37.840;2024-02-14T06:20:04;6.10;;;3.90;;
45909;SDS011;31622;55.416;37.840;2024-02-14T06:22:32;5.80;;;4.03;;
45909;SDS011;31622;55.416;37.840;2024-02-14T06:24:59;6.32;;;4.35;;
45909;SDS011;31622;55.416;37.840;2024-02-14T06:27:25;6.53;;;4.38;;
45909;SDS011;31622;55.416;37.840;2024-02-14T06:29:51;7.30;;;4.82;;
45909;SDS011;31622;55.416;37.840;2024-02-14T06:32:18;7.75;;;3.90;;
45909;SDS011;31622;55.416;37.840;2024-02-14T06:34:44;6.60;;;4.20;;
45909;SDS011;31622;55.416;37.840;2024-02-14T06:37:09;6.57;;;4.22;;
45909;SDS011;31622;55.416;37.840;2024-02-14T06:39:35;5.43;;;3.70;;
45909;SDS011;31622;55.416;37.840;2024-02-14T06:42:01;7.32;;;4.30;;
45909;SDS011;31622;55.416;37.840;2024-02-14T06:44:26;5.53;;;3.78;;
45909;SDS011;31622;55.416;37.840;2024-02-14T06:46:52;5.68;;;3.83;;
45909;SDS011;31622;55.416;37.840;2024-02-14T06:49:18;5.95;;;4.05;;
45909;SDS011;31622;55.416;37.840;2024-02-14T06:51:44;5.90;;;3.80;;
45909;SDS011;31622;55.416;37.840;2024-02-14T06:54:10;5.88;;;3.83;;
45909;SDS011;31622;55.416;37.840;2024-02-14T06:56:37;6.78;;;4.03;;
45909;SDS011;31622;55.416;37.840;2024-02-14T06:59:03;6.68;;;4.05;;
45909;SDS011;31622;55.416;37.840;2024-02-14T07:01:29;5.80;;;4.18;;
45909;SDS011;31622;55.416;37.840;2024-02-14T07:03:55;7.20;;;4.30;;
45909;SDS011;31622;55.416;37.840;2024-02-14T07:06:21;6.57;;;4.22;;
45909;SDS011;31622;55.416;37.840;2024-02-14T07:08:47;7.82;;;4.35;;
45909;SDS011;31622;55.416;37.840;2024-02-14T07:11:14;10.27;;;4.85;;
45909;SDS011;31622;55.416;37.840;2024-02-14T07:13:41;8.18;;;4.22;;
45909;SDS011;31622;55.416;37.840;2024-02-14T07:16:06;10.15;;;4.18;;
45909;SDS011;31622;55.416;37.840;2024-02-14T07:18:33;9.18;;;4.15;;
45909;SDS011;31622;55.416;37.840;2024-02-14T07:20:59;8.90;;;4.80;;
45909;SDS011;31622;55.416;37.840;2024-02-14T07:23:25;14.00;;;4.30;;
45909;SDS011;31622;55.416;37.840;2024-02-14T07:25:51;10.50;;;4.63;;
45909;SDS011;31622;55.416;37.840;2024-02-14T07:28:17;11.75;;;4.18;;
45909;SDS011;31622;55.416;37.840;2024-02-14T07:30:43;10.98;;;4.60;;
45909;SDS011;31622;55.416;37.840;2024-02-14T07:33:09;9.00;;;4.60;;
45909;SDS011;31622;55.416;37.840;2024-02-14T07:35:36;11.07;;;3.90;;
45909;SDS011;31622;55.416;37.840;2024-02-14T07:38:02;8.68;;;4.68;;
45909;SDS011;31622;55.416;37.840;2024-02-14T07:40:28;10.48;;;3.80;;
45909;SDS011;31622;55.416;37.840;2024-02-14T07:42:59;7.07;;;4.28;;
45909;SDS011;31622;55.416;37.840;2024-02-14T07:45:25;9.10;;;4.35;;
45909;SDS011;31622;55.416;37.840;2024-02-14T07:47:51;7.28;;;3.90;;
45909;SDS011;31622;55.416;37.840;2024-02-14T07:50:17;10.57;;;4.55;;
45909;SDS011;31622;55.416;37.840;2024-02-14T07:52:44;8.88;;;3.92;;
45909;SDS011;31622;55.416;37.840;2024-02-14T07:55:10;9.85;;;4.00;;
45909;SDS011;31622;55.416;37.840;2024-02-14T07:57:37;5.70;;;3.63;;
45909;SDS011;31622;55.416;37.840;2024-02-14T08:00:07;11.00;;;4.10;;
45909;SDS011;31622;55.416;37.840;2024-02-14T08:02:34;6.95;;;3.40;;
45909;SDS011;31622;55.416;37.840;2024-02-14T08:05:00;7.50;;;3.45;;
45909;SDS011;31622;55.416;37.840;2024-02-14T08:07:26;6.18;;;3.40;;
45909;SDS011;31622;55.416;37.840;2024-02-14T08:09:52;6.72;;;3.60;;
45909;SDS011;31622;55.416;37.840;2024-02-14T08:12:23;6.60;;;3.75;;
45909;SDS011;31622;55.416;37.840;2024-02-14T08:14:51;6.03;;;3.78;;
45909;SDS011;31622;55.416;37.840;2024-02-14T08:17:17;5.72;;;3.53;;
45909;SDS011;31622;55.416;37.840;2024-02-14T08:19:43;5.85;;;3.53;;
45909;SDS011;31622;55.416;37.840;2024-02-14T08:22:09;6.88;;;3.55;;
45909;SDS011;31622;55.416;37.840;2024-02-14T08:24:34;6.93;;;3.30;;
45909;SDS011;31622;55.416;37.840;2024-02-14T08:27:00;5.53;;;3.30;;
45909;SDS011;31622;55.416;37.840;2024-02-14T08:29:26;6.68;;;3.22;;
45909;SDS011;31622;55.416;37.840;2024-02-14T08:31:51;5.15;;;3.38;;
45909;SDS011;31622;55.416;37.840;2024-02-14T08:34:18;4.90;;;3.35;;
45909;SDS011;31622;55.416;37.840;2024-02-14T08:36:44;5.88;;;2.90;;
45909;SDS011;31622;55.416;37.840;2024-02-14T08:39:09;4.18;;;2.90;;
45909;SDS011;31622;55.416;37.840;2024-02-14T08:41:39;5.75;;;3.08;;
45909;SDS011;31622;55.416;37.840;2024-02-14T08:44:09;4.25;;;2.92;;
45909;SDS011;31622;55.416;37.840;2024-02-14T08:46:35;4.88;;;3.28;;
45909;SDS011;31622;55.416;37.840;2024-02-14T08:49:01;4.63;;;3.17;;
45909;SDS011;31622;55.416;37.840;2024-02-14T08:51:34;4.15;;;2.83;;
45909;SDS011;31622;55.416;37.840;2024-02-14T08:54:00;6.68;;;3.28;;
45909;SDS011;31622;55.416;37.840;2024-02-14T08:56:30;5.00;;;2.83;;
45909;SDS011;31622;55.416;37.840;2024-02-14T08:59:01;5.63;;;2.80;;
45909;SDS011;31622;55.416;37.840;2024-02-14T09:01:30;6.50;;;3.33;;
45909;SDS011;31622;55.416;37.840;2024-02-14T09:03:56;9.48;;;5.07;;
45909;SDS011;31622;55.416;37.840;2024-02-14T09:06:24;18.58;;;6.90;;
45909;SDS011;31622;55.416;37.840;2024-02-14T09:08:51;20.77;;;7.32;;
45909;SDS011;31622;55.416;37.840;2024-02-14T09:11:18;23.75;;;8.52;;
45909;SDS011;31622;55.416;37.840;2024-02-14T09:13:44;21.02;;;8.75;;
45909;SDS011;31622;55.416;37.840;2024-02-14T09:16:13;20.83;;;8.23;;
45909;SDS011;31622;55.416;37.840;2024-02-14T09:18:41;20.20;;;8.27;;
45909;SDS011;31622;55.416;37.840;2024-02-14T09:21:07;25.42;;;8.50;;
45909;SDS011;31622;55.416;37.840;2024-02-14T09:23:33;23.33;;;8.63;;
45909;SDS011;31622;55.416;37.840;2024-02-14T09:25:59;20.25;;;8.23;;
45909;SDS011;31622;55.416;37.840;2024-02-14T09:28:25;20.85;;;8.50;;
45909;SDS011;31622;55.416;37.840;2024-02-14T09:30:51;24.00;;;8.23;;
45909;SDS011;31622;55.416;37.840;2024-02-14T09:33:17;17.75;;;7.07;;
45909;SDS011;31622;55.416;37.840;2024-02-14T09:35:43;22.30;;;8.23;;
45909;SDS011;31622;55.416;37.840;2024-02-14T09:38:13;16.85;;;7.00;;
45909;SDS011;31622;55.416;37.840;2024-02-14T09:40:42;19.73;;;7.53;;
45909;SDS011;31622;55.416;37.840;2024-02-14T09:45:47;17.15;;;6.57;;
45909;SDS011;31622;55.416;37.840;2024-02-14T09:48:16;14.30;;;6.47;;
45909;SDS011;31622;55.416;37.840;2024-02-14T09:50:42;19.67;;;7.47;;
45909;SDS011;31622;55.416;37.840;2024-02-14T09:53:08;14.13;;;5.88;;
45909;SDS011;31622;55.416;37.840;2024-02-14T09:55:35;12.85;;;6.20;;
45909;SDS011;31622;55.416;37.840;2024-02-14T09:58:01;18.13;;;7.43;;
45909;SDS011;31622;55.416;37.840;2024-02-14T10:00:31;16.08;;;6.03;;
45909;SDS011;31622;55.416;37.840;2024-02-14T10:02:58;16.08;;;6.00;;
45909;SDS011;31622;55.416;37.840;2024-02-14T10:05:24;17.40;;;6.35;;
45909;SDS011;31622;55.416;37.840;2024-02-14T10:07:50;12.98;;;5.65;;
45909;SDS011;31622;55.416;37.840;2024-02-14T10:10:16;11.38;;;5.53;;
45909;SDS011;31622;55.416;37.840;2024-02-14T10:12:42;11.82;;;5.30;;
45909;SDS011;31622;55.416;37.840;2024-02-14T10:15:08;14.80;;;5.82;;
45909;SDS011;31622;55.416;37.840;2024-02-14T10:17:34;11.27;;;5.32;;
45909;SDS011;31622;55.416;37.840;2024-02-14T10:20:01;10.35;;;5.28;;
45909;SDS011;31622;55.416;37.840;2024-02-14T10:22:34;11.47;;;5.07;;
45909;SDS011;31622;55.416;37.840;2024-02-14T10:25:01;13.15;;;5.57;;
45909;SDS011;31622;55.416;37.840;2024-02-14T10:27:29;14.05;;;5.60;;
45909;SDS011;31622;55.416;37.840;2024-02-14T10:29:57;9.18;;;5.05;;
45909;SDS011;31622;55.416;37.840;2024-02-14T10:32:22;8.73;;;4.75;;
45909;SDS011;31622;55.416;37.840;2024-02-14T10:34:49;9.40;;;5.00;;
45909;SDS011;31622;55.416;37.840;2024-02-14T10:37:15;8.80;;;4.72;;
45909;SDS011;31622;55.416;37.840;2024-02-14T10:39:44;7.30;;;4.20;;
45909;SDS011;31622;55.416;37.840;2024-02-14T10:42:12;9.07;;;4.32;;
45909;SDS011;31622;55.416;37.840;2024-02-14T10:44:39;7.30;;;4.40;;
45909;SDS011;31622;55.416;37.840;2024-02-14T10:47:05;8.20;;;4.68;;
45909;SDS011;31622;55.416;37.840;2024-02-14T10:49:32;10.07;;;4.07;;
45909;SDS011;31622;55.416;37.840;2024-02-14T10:51:58;7.93;;;4.07;;
45909;SDS011;31622;55.416;37.840;2024-02-14T10:54:30;9.60;;;4.10;;
45909;SDS011;31622;55.416;37.840;2024-02-14T10:56:56;7.82;;;4.28;;
45909;SDS011;31622;55.416;37.840;2024-02-14T10:59:23;7.57;;;4.30;;
45909;SDS011;31622;55.416;37.840;2024-02-14T11:01:50;7.45;;;3.97;;
45909;SDS011;31622;55.416;37.840;2024-02-14T11:04:16;6.60;;;3.90;;
45909;SDS011;31622;55.416;37.840;2024-02-14T11:06:44;7.50;;;3.95;;
45909;SDS011;31622;55.416;37.840;2024-02-14T11:09:13;7.70;;;3.90;;
45909;SDS011;31622;55.416;37.840;2024-02-14T11:11:43;6.22;;;3.72;;
45909;SDS011;31622;55.416;37.840;2024-02-14T11:14:10;7.50;;;3.92;;
45909;SDS011;31622;55.416;37.840;2024-02-14T11:16:40;7.93;;;4.07;;
45909;SDS011;31622;55.416;37.840;2024-02-14T11:19:09;7.18;;;4.43;;
45909;SDS011;31622;55.416;37.840;2024-02-14T11:21:35;6.68;;;4.55;;
45909;SDS011;31622;55.416;37.840;2024-02-14T11:24:11;7.97;;;4.55;;
45909;SDS011;31622;55.416;37.840;2024-02-14T11:26:46;8.43;;;4.40;;
45909;SDS011;31622;55.416;37.840;2024-02-14T11:29:16;8.15;;;4.80;;
45909;SDS011;31622;55.416;37.840;2024-02-14T11:31:43;10.02;;;4.78;;
45909;SDS011;31622;55.416;37.840;2024-02-14T11:34:12;7.32;;;4.13;;
45909;SDS011;31622;55.416;37.840;2024-02-14T11:36:41;9.32;;;5.18;;
45909;SDS011;31622;55.416;37.840;2024-02-14T11:39:07;9.65;;;4.15;;
45909;SDS011;31622;55.416;37.840;2024-02-14T11:41:33;10.05;;;4.90;;
45909;SDS011;31622;55.416;37.840;2024-02-14T11:44:02;5.90;;;3.80;;
45909;SDS011;31622;55.416;37.840;2024-02-14T11:46:30;9.05;;;3.92;;
45909;SDS011;31622;55.416;37.840;2024-02-14T11:48:58;5.20;;;3.38;;
45909;SDS011;31622;55.416;37.840;2024-02-14T11:51:26;7.10;;;4.25;;
45909;SDS011;31622;55.416;37.840;2024-02-14T11:53:59;6.45;;;4.20;;
45909;SDS011;31622;55.416;37.840;2024-02-14T11:56:36;6.25;;;4.20;;
45909;SDS011;31622;55.416;37.840;2024-02-14T11:59:03;6.45;;;3.83;;
45909;SDS011;31622;55.416;37.840;2024-02-14T12:01:36;7.32;;;4.50;;
45909;SDS011;31622;55.416;37.840;2024-02-14T12:04:05;8.65;;;4.40;;
45909;SDS011;31622;55.416;37.840;2024-02-14T12:06:34;7.15;;;4.75;;
45909;SDS011;31622;55.416;37.840;2024-02-14T12:09:04;8.70;;;5.13;;
45909;SDS011;31622;55.416;37.840;2024-02-14T12:11:34;9.27;;;5.28;;
45909;SDS011;31622;55.416;37.840;2024-02-14T12:14:07;9.13;;;5.28;;
45909;SDS011;31622;55.416;37.840;2024-02-14T12:16:34;10.20;;;5.72;;
45909;SDS011;31622;55.416;37.840;2024-02-14T12:19:35;10.57;;;5.32;;
45909;SDS011;31622;55.416;37.840;2024-02-14T12:21:54;9.57;;;5.82;;
45909;SDS011;31622;55.416;37.840;2024-02-14T12:24:21;10.38;;;5.55;;
45909;SDS011;31622;55.416;37.840;2024-02-14T12:26:48;7.95;;;5.00;;
45909;SDS011;31622;55.416;37.840;2024-02-14T12:29:17;10.48;;;4.80;;
45909;SDS011;31622;55.416;37.840;2024-02-14T12:31:43;7.97;;;4.88;;
45909;SDS011;31622;55.416;37.840;2024-02-14T12:34:10;9.40;;;5.25;;
45909;SDS011;31622;55.416;37.840;2024-02-14T12:36:36;7.43;;;4.93;;
45909;SDS011;31622;55.416;37.840;2024-02-14T12:39:03;10.60;;;5.50;;
45909;SDS011;31622;55.416;37.840;2024-02-14T12:41:29;8.90;;;5.30;;
45909;SDS011;31622;55.416;37.840;2024-02-14T12:43:56;9.05;;;6.13;;
45909;SDS011;31622;55.416;37.840;2024-02-14T12:46:22;9.95;;;5.95;;
45909;SDS011;31622;55.416;37.840;2024-02-14T12:48:48;9.48;;;6.20;;
45909;SDS011;31622;55.416;37.840;2024-02-14T12:51:14;10.43;;;6.35;;
45909;SDS011;31622;55.416;37.840;2024-02-14T12:53:40;10.30;;;7.10;;
45909;SDS011;31622;55.416;37.840;2024-02-14T12:56:06;12.15;;;7.75;;
45909;SDS011;31622;55.416;37.840;2024-02-14T12:58:32;13.10;;;7.47;;
45909;SDS011;31622;55.416;37.840;2024-02-14T13:00:58;10.75;;;7.32;;
45909;SDS011;31622;55.416;37.840;2024-02-14T13:03:24;10.80;;;6.70;;
45909;SDS011;31622;55.416;37.840;2024-02-14T13:05:50;10.35;;;7.20;;
45909;SDS011;31622;55.416;37.840;2024-02-14T13:08:19;12.30;;;7.68;;
45909;SDS011;31622;55.416;37.840;2024-02-14T13:10:45;10.10;;;7.07;;
45909;SDS011;31622;55.416;37.840;2024-02-14T13:13:11;10.35;;;7.28;;
45909;SDS011;31622;55.416;37.840;2024-02-14T13:15:37;10.23;;;6.80;;
45909;SDS011;31622;55.416;37.840;2024-02-14T13:18:03;9.30;;;6.82;;
45909;SDS011;31622;55.416;37.840;2024-02-14T13:20:29;8.90;;;6.18;;
45909;SDS011;31622;55.416;37.840;2024-02-14T13:22:55;8.75;;;6.25;;
45909;SDS011;31622;55.416;37.840;2024-02-14T13:25:20;9.18;;;6.13;;
45909;SDS011;31622;55.416;37.840;2024-02-14T13:27:47;7.95;;;5.95;;
45909;SDS011;31622;55.416;37.840;2024-02-14T13:30:12;8.23;;;5.68;;
45909;SDS011;31622;55.416;37.840;2024-02-14T13:32:38;9.52;;;5.57;;
45909;SDS011;31622;55.416;37.840;2024-02-14T13:35:04;8.10;;;5.80;;
45909;SDS011;31622;55.416;37.840;2024-02-14T13:37:31;9.32;;;6.07;;
45909;SDS011;31622;55.416;37.840;2024-02-14T13:39:57;8.15;;;5.82;;
45909;SDS011;31622;55.416;37.840;2024-02-14T13:42:23;8.20;;;5.90;;
45909;SDS011;31622;55.416;37.840;2024-02-14T13:44:48;9.65;;;6.13;;
45909;SDS011;31622;55.416;37.840;2024-02-14T13:47:17;7.32;;;5.30;;
45909;SDS011;31622;55.416;37.840;2024-02-14T13:49:44;7.45;;;5.45;;
45909;SDS011;31622;55.416;37.840;2024-02-14T13:52:10;8.60;;;5.30;;
45909;SDS011;31622;55.416;37.840;2024-02-14T13:54:35;7.47;;;4.68;;
45909;SDS011;31622;55.416;37.840;2024-02-14T13:57:01;7.90;;;4.88;;
45909;SDS011;31622;55.416;37.840;2024-02-14T13:59:28;7.70;;;5.38;;
45909;SDS011;31622;55.416;37.840;2024-02-14T14:01:54;8.57;;;4.93;;
45909;SDS011;31622;55.416;37.840;2024-02-14T14:04:20;8.43;;;5.30;;
45909;SDS011;31622;55.416;37.840;2024-02-14T14:06:46;6.65;;;5.28;;
45909;SDS011;31622;55.416;37.840;2024-02-14T14:09:12;6.78;;;5.15;;
45909;SDS011;31622;55.416;37.840;2024-02-14T14:11:39;7.00;;;5.22;;
45909;SDS011;31622;55.416;37.840;2024-02-14T14:14:05;8.10;;;5.80;;
45909;SDS011;31622;55.416;37.840;2024-02-14T14:16:31;7.85;;;5.57;;
45909;SDS011;31622;55.416;37.840;2024-02-14T14:19:00;7.90;;;6.00;;
45909;SDS011;31622;55.416;37.840;2024-02-14T14:21:26;8.70;;;6.32;;
45909;SDS011;31622;55.416;37.840;2024-02-14T14:23:52;8.30;;;5.93;;
45909;SDS011;31622;55.416;37.840;2024-02-14T14:26:17;8.73;;;6.63;;
45909;SDS011;31622;55.416;37.840;2024-02-14T14:28:43;7.68;;;6.38;;
45909;SDS011;31622;55.416;37.840;2024-02-14T14:31:09;7.53;;;5.90;;
45909;SDS011;31622;55.416;37.840;2024-02-14T14:33:36;7.13;;;6.03;;